sensor_id;sensor_type;location;lat;lon;timestamp;P1;durP1;ratioP1;P2;durP2;ratioP2
55756;SDS011;41676;44.610;44.078;2022-11-03T00:01:37;7.53;;;2.83;;
55756;SDS011;41676;44.610;44.078;2022-11-03T00:06:40;5.72;;;3.28;;
55756;SDS011;41676;44.610;44.078;2022-11-03T00:11:42;8.15;;;3.70;;
55756;SDS011;41676;44.610;44.078;2022-11-03T00:16:45;11.27;;;3.72;;
55756;SDS011;41676;44.610;44.078;2022-11-03T00:21:46;8.18;;;4.22;;
55756;SDS011;41676;44.610;44.078;2022-11-03T00:26:47;7.85;;;4.80;;
55756;SDS011;41676;44.610;44.078;2022-11-03T00:31:48;9.70;;;5.60;;
55756;SDS011;41676;44.610;44.078;2022-11-03T00:36:49;9.32;;;5.80;;
55756;SDS011;41676;44.610;44.078;2022-11-03T00:41:51;10.70;;;6.43;;
55756;SDS011;41676;44.610;44.078;2022-11-03T00:46:52;11.52;;;5.57;;
55756;SDS011;41676;44.610;44.078;2022-11-03T00:51:53;11.65;;;6.25;;
55756;SDS011;41676;44.610;44.078;2022-11-03T00:56:54;11.98;;;6.60;;
55756;SDS011;41676;44.610;44.078;2022-11-03T01:01:55;8.55;;;6.05;;
55756;SDS011;41676;44.610;44.078;2022-11-03T01:06:56;12.55;;;7.07;;
55756;SDS011;41676;44.610;44.078;2022-11-03T01:12:14;12.90;;;6.78;;
55756;SDS011;41676;44.610;44.078;2022-11-03T01:17:20;12.80;;;6.53;;
55756;SDS011;41676;44.610;44.078;2022-11-03T01:22:23;10.15;;;7.05;;
55756;SDS011;41676;44.610;44.078;2022-11-03T01:27:24;11.50;;;7.32;;
55756;SDS011;41676;44.610;44.078;2022-11-03T01:32:25;11.52;;;7.32;;
55756;SDS011;41676;44.610;44.078;2022-11-03T01:37:26;13.27;;;7.95;;
55756;SDS011;41676;44.610;44.078;2022-11-03T01:42:26;17.40;;;7.47;;
55756;SDS011;41676;44.610;44.078;2022-11-03T01:47:28;13.15;;;7.55;;
55756;SDS011;41676;44.610;44.078;2022-11-03T01:52:33;13.77;;;8.63;;
55756;SDS011;41676;44.610;44.078;2022-11-03T01:57:40;11.95;;;8.60;;
55756;SDS011;41676;44.610;44.078;2022-11-03T02:03:03;12.80;;;7.93;;
55756;SDS011;41676;44.610;44.078;2022-11-03T02:08:09;14.25;;;8.60;;
55756;SDS011;41676;44.610;44.078;2022-11-03T02:13:17;14.50;;;9.27;;
55756;SDS011;41676;44.610;44.078;2022-11-03T02:18:21;15.63;;;9.43;;
55756;SDS011;41676;44.610;44.078;2022-11-03T02:23:31;17.67;;;11.10;;
55756;SDS011;41676;44.610;44.078;2022-11-03T02:28:37;13.65;;;9.95;;
55756;SDS011;41676;44.610;44.078;2022-11-03T02:39:04;20.35;;;14.63;;
55756;SDS011;41676;44.610;44.078;2022-11-03T02:44:19;17.70;;;12.27;;
55756;SDS011;41676;44.610;44.078;2022-11-03T02:49:20;19.42;;;11.40;;
55756;SDS011;41676;44.610;44.078;2022-11-03T02:54:30;16.63;;;11.30;;
55756;SDS011;41676;44.610;44.078;2022-11-03T02:59:41;18.35;;;11.48;;
55756;SDS011;41676;44.610;44.078;2022-11-03T03:04:52;24.50;;;10.98;;
55756;SDS011;41676;44.610;44.078;2022-11-03T03:09:57;18.35;;;10.93;;
55756;SDS011;41676;44.610;44.078;2022-11-03T03:15:03;19.75;;;11.95;;
55756;SDS011;41676;44.610;44.078;2022-11-03T03:25:46;34.92;;;13.48;;
55756;SDS011;41676;44.610;44.078;2022-11-03T03:30:51;20.98;;;11.63;;
55756;SDS011;41676;44.610;44.078;2022-11-03T03:35:55;18.13;;;11.98;;
55756;SDS011;41676;44.610;44.078;2022-11-03T03:40:59;21.83;;;13.35;;
55756;SDS011;41676;44.610;44.078;2022-11-03T03:46:03;20.08;;;13.50;;
55756;SDS011;41676;44.610;44.078;2022-11-03T03:51:07;13.10;;;6.88;;
55756;SDS011;41676;44.610;44.078;2022-11-03T03:56:10;11.65;;;3.92;;
55756;SDS011;41676;44.610;44.078;2022-11-03T04:01:11;4.93;;;3.00;;
55756;SDS011;41676;44.610;44.078;2022-11-03T04:06:11;8.45;;;2.88;;
55756;SDS011;41676;44.610;44.078;2022-11-03T04:11:12;14.25;;;3.53;;
55756;SDS011;41676;44.610;44.078;2022-11-03T04:16:32;18.73;;;4.32;;
55756;SDS011;41676;44.610;44.078;2022-11-03T04:21:51;18.38;;;3.45;;
55756;SDS011;41676;44.610;44.078;2022-11-03T04:27:55;10.32;;;3.03;;
55756;SDS011;41676;44.610;44.078;2022-11-03T04:32:35;13.60;;;3.08;;
55756;SDS011;41676;44.610;44.078;2022-11-03T04:37:36;7.53;;;2.88;;
55756;SDS011;41676;44.610;44.078;2022-11-03T04:42:37;9.90;;;2.90;;
55756;SDS011;41676;44.610;44.078;2022-11-03T04:47:38;6.10;;;3.08;;
55756;SDS011;41676;44.610;44.078;2022-11-03T04:52:39;11.48;;;3.08;;
55756;SDS011;41676;44.610;44.078;2022-11-03T04:57:40;10.80;;;3.13;;
55756;SDS011;41676;44.610;44.078;2022-11-03T05:02:41;16.45;;;4.05;;
55756;SDS011;41676;44.610;44.078;2022-11-03T05:07:42;9.65;;;5.65;;
55756;SDS011;41676;44.610;44.078;2022-11-03T05:12:46;10.88;;;7.32;;
55756;SDS011;41676;44.610;44.078;2022-11-03T05:17:47;17.88;;;9.75;;
55756;SDS011;41676;44.610;44.078;2022-11-03T05:22:48;14.20;;;10.05;;
55756;SDS011;41676;44.610;44.078;2022-11-03T05:27:49;16.92;;;12.13;;
55756;SDS011;41676;44.610;44.078;2022-11-03T05:32:50;17.67;;;11.80;;
55756;SDS011;41676;44.610;44.078;2022-11-03T05:37:52;20.23;;;12.68;;
55756;SDS011;41676;44.610;44.078;2022-11-03T05:42:55;19.73;;;11.93;;
55756;SDS011;41676;44.610;44.078;2022-11-03T05:47:58;21.15;;;12.73;;
55756;SDS011;41676;44.610;44.078;2022-11-03T05:58:33;16.10;;;9.90;;
55756;SDS011;41676;44.610;44.078;2022-11-03T06:03:35;21.73;;;10.00;;
55756;SDS011;41676;44.610;44.078;2022-11-03T06:08:36;15.52;;;9.60;;
55756;SDS011;41676;44.610;44.078;2022-11-03T06:13:37;15.30;;;8.68;;
55756;SDS011;41676;44.610;44.078;2022-11-03T06:18:38;13.02;;;8.30;;
55756;SDS011;41676;44.610;44.078;2022-11-03T06:23:39;11.02;;;7.47;;
55756;SDS011;41676;44.610;44.078;2022-11-03T06:28:40;21.63;;;13.93;;
55756;SDS011;41676;44.610;44.078;2022-11-03T06:33:41;20.50;;;9.73;;
55756;SDS011;41676;44.610;44.078;2022-11-03T06:38:43;13.75;;;7.05;;
55756;SDS011;41676;44.610;44.078;2022-11-03T06:43:50;12.10;;;7.40;;
55756;SDS011;41676;44.610;44.078;2022-11-03T06:48:52;9.73;;;6.18;;
55756;SDS011;41676;44.610;44.078;2022-11-03T06:54:13;13.40;;;7.68;;
55756;SDS011;41676;44.610;44.078;2022-11-03T06:59:14;10.85;;;5.97;;
55756;SDS011;41676;44.610;44.078;2022-11-03T07:04:18;8.30;;;5.43;;
55756;SDS011;41676;44.610;44.078;2022-11-03T07:09:22;10.10;;;5.53;;
55756;SDS011;41676;44.610;44.078;2022-11-03T07:14:27;10.25;;;6.05;;
55756;SDS011;41676;44.610;44.078;2022-11-03T07:19:40;9.77;;;4.83;;
55756;SDS011;41676;44.610;44.078;2022-11-03T07:24:45;7.72;;;5.32;;
55756;SDS011;41676;44.610;44.078;2022-11-03T07:29:51;8.73;;;4.65;;
55756;SDS011;41676;44.610;44.078;2022-11-03T07:40:21;9.20;;;4.55;;
55756;SDS011;41676;44.610;44.078;2022-11-03T07:50:41;8.13;;;4.50;;
55756;SDS011;41676;44.610;44.078;2022-11-03T07:55:43;11.38;;;5.20;;
55756;SDS011;41676;44.610;44.078;2022-11-03T08:00:45;8.07;;;4.90;;
55756;SDS011;41676;44.610;44.078;2022-11-03T08:05:46;8.88;;;4.60;;
55756;SDS011;41676;44.610;44.078;2022-11-03T08:10:47;9.13;;;4.68;;
55756;SDS011;41676;44.610;44.078;2022-11-03T08:15:47;11.18;;;4.90;;
55756;SDS011;41676;44.610;44.078;2022-11-03T08:20:48;8.70;;;3.80;;
55756;SDS011;41676;44.610;44.078;2022-11-03T08:25:49;8.30;;;3.75;;
55756;SDS011;41676;44.610;44.078;2022-11-03T08:30:50;14.15;;;3.83;;
55756;SDS011;41676;44.610;44.078;2022-11-03T08:35:50;7.85;;;3.65;;
55756;SDS011;41676;44.610;44.078;2022-11-03T08:40:51;6.70;;;4.35;;
55756;SDS011;41676;44.610;44.078;2022-11-03T08:45:53;10.18;;;5.03;;
55756;SDS011;41676;44.610;44.078;2022-11-03T08:50:54;8.32;;;5.15;;
55756;SDS011;41676;44.610;44.078;2022-11-03T08:55:55;10.73;;;4.80;;
55756;SDS011;41676;44.610;44.078;2022-11-03T09:00:56;8.98;;;5.07;;
55756;SDS011;41676;44.610;44.078;2022-11-03T09:05:57;7.53;;;4.35;;
55756;SDS011;41676;44.610;44.078;2022-11-03T09:10:58;8.35;;;4.53;;
55756;SDS011;41676;44.610;44.078;2022-11-03T09:15:58;8.80;;;4.47;;
55756;SDS011;41676;44.610;44.078;2022-11-03T09:20:59;4.35;;;2.20;;
55756;SDS011;41676;44.610;44.078;2022-11-03T09:26:00;4.78;;;2.33;;
55756;SDS011;41676;44.610;44.078;2022-11-03T09:31:01;3.80;;;1.90;;
55756;SDS011;41676;44.610;44.078;2022-11-03T09:36:02;6.63;;;2.22;;
55756;SDS011;41676;44.610;44.078;2022-11-03T09:41:03;19.85;;;2.88;;
55756;SDS011;41676;44.610;44.078;2022-11-03T09:46:05;5.35;;;1.90;;
55756;SDS011;41676;44.610;44.078;2022-11-03T09:51:07;3.03;;;1.42;;
55756;SDS011;41676;44.610;44.078;2022-11-03T09:56:10;3.00;;;1.50;;
55756;SDS011;41676;44.610;44.078;2022-11-03T10:01:10;7.07;;;1.98;;
55756;SDS011;41676;44.610;44.078;2022-11-03T10:06:11;2.92;;;1.45;;
55756;SDS011;41676;44.610;44.078;2022-11-03T10:11:12;4.57;;;1.83;;
55756;SDS011;41676;44.610;44.078;2022-11-03T10:16:16;4.05;;;2.35;;
55756;SDS011;41676;44.610;44.078;2022-11-03T10:21:22;5.43;;;2.70;;
55756;SDS011;41676;44.610;44.078;2022-11-03T10:26:27;6.10;;;2.10;;
55756;SDS011;41676;44.610;44.078;2022-11-03T10:31:35;6.20;;;2.58;;
55756;SDS011;41676;44.610;44.078;2022-11-03T10:36:40;3.72;;;2.13;;
55756;SDS011;41676;44.610;44.078;2022-11-03T10:41:41;2.75;;;1.40;;
55756;SDS011;41676;44.610;44.078;2022-11-03T10:52:13;2.67;;;1.42;;
55756;SDS011;41676;44.610;44.078;2022-11-03T10:57:21;1.60;;;0.88;;
55756;SDS011;41676;44.610;44.078;2022-11-03T11:02:28;5.25;;;1.33;;
55756;SDS011;41676;44.610;44.078;2022-11-03T11:07:34;2.70;;;1.50;;
55756;SDS011;41676;44.610;44.078;2022-11-03T11:12:39;3.10;;;1.67;;
55756;SDS011;41676;44.610;44.078;2022-11-03T11:23:42;2.13;;;1.20;;
55756;SDS011;41676;44.610;44.078;2022-11-03T11:28:45;1.65;;;0.80;;
55756;SDS011;41676;44.610;44.078;2022-11-03T11:49:39;3.08;;;1.75;;
55756;SDS011;41676;44.610;44.078;2022-11-03T11:54:40;2.75;;;1.40;;
55756;SDS011;41676;44.610;44.078;2022-11-03T11:59:43;2.60;;;1.58;;
55756;SDS011;41676;44.610;44.078;2022-11-03T12:04:46;4.22;;;2.15;;
55756;SDS011;41676;44.610;44.078;2022-11-03T12:09:48;4.10;;;1.70;;
55756;SDS011;41676;44.610;44.078;2022-11-03T12:14:48;4.47;;;2.40;;
55756;SDS011;41676;44.610;44.078;2022-11-03T12:19:50;5.07;;;2.55;;
55756;SDS011;41676;44.610;44.078;2022-11-03T12:24:53;6.10;;;2.97;;
55756;SDS011;41676;44.610;44.078;2022-11-03T12:29:58;11.70;;;3.15;;
55756;SDS011;41676;44.610;44.078;2022-11-03T12:35:02;5.05;;;2.45;;
55756;SDS011;41676;44.610;44.078;2022-11-03T12:40:04;4.50;;;2.50;;
55756;SDS011;41676;44.610;44.078;2022-11-03T12:45:06;3.92;;;2.10;;
55756;SDS011;41676;44.610;44.078;2022-11-03T12:50:08;7.63;;;3.00;;
55756;SDS011;41676;44.610;44.078;2022-11-03T12:55:09;4.90;;;2.15;;
55756;SDS011;41676;44.610;44.078;2022-11-03T13:00:11;7.10;;;2.22;;
55756;SDS011;41676;44.610;44.078;2022-11-03T13:05:12;5.38;;;2.38;;
55756;SDS011;41676;44.610;44.078;2022-11-03T13:10:14;8.82;;;2.53;;
55756;SDS011;41676;44.610;44.078;2022-11-03T13:15:15;8.85;;;2.40;;
55756;SDS011;41676;44.610;44.078;2022-11-03T13:20:16;9.95;;;4.07;;
55756;SDS011;41676;44.610;44.078;2022-11-03T13:25:17;8.60;;;4.47;;
55756;SDS011;41676;44.610;44.078;2022-11-03T13:30:19;16.17;;;5.13;;
55756;SDS011;41676;44.610;44.078;2022-11-03T13:35:21;44.15;;;5.28;;
55756;SDS011;41676;44.610;44.078;2022-11-03T13:40:22;9.15;;;2.83;;
55756;SDS011;41676;44.610;44.078;2022-11-03T13:45:23;12.95;;;3.75;;
55756;SDS011;41676;44.610;44.078;2022-11-03T13:50:23;9.20;;;2.72;;
55756;SDS011;41676;44.610;44.078;2022-11-03T13:55:24;9.15;;;3.13;;
55756;SDS011;41676;44.610;44.078;2022-11-03T14:00:25;15.10;;;3.15;;
55756;SDS011;41676;44.610;44.078;2022-11-03T14:05:26;11.40;;;2.60;;
55756;SDS011;41676;44.610;44.078;2022-11-03T14:10:26;6.18;;;2.90;;
55756;SDS011;41676;44.610;44.078;2022-11-03T14:15:27;30.05;;;4.45;;
55756;SDS011;41676;44.610;44.078;2022-11-03T14:20:28;18.60;;;3.28;;
55756;SDS011;41676;44.610;44.078;2022-11-03T14:25:29;8.90;;;2.97;;
55756;SDS011;41676;44.610;44.078;2022-11-03T14:30:30;7.53;;;3.08;;
55756;SDS011;41676;44.610;44.078;2022-11-03T14:35:30;9.20;;;3.85;;
55756;SDS011;41676;44.610;44.078;2022-11-03T14:40:31;9.38;;;2.97;;
55756;SDS011;41676;44.610;44.078;2022-11-03T14:45:51;10.88;;;5.00;;
55756;SDS011;41676;44.610;44.078;2022-11-03T14:50:52;11.07;;;3.50;;
55756;SDS011;41676;44.610;44.078;2022-11-03T14:55:52;6.93;;;3.10;;
55756;SDS011;41676;44.610;44.078;2022-11-03T15:00:53;8.52;;;3.42;;
55756;SDS011;41676;44.610;44.078;2022-11-03T15:05:54;11.50;;;3.25;;
55756;SDS011;41676;44.610;44.078;2022-11-03T15:10:55;10.02;;;2.70;;
55756;SDS011;41676;44.610;44.078;2022-11-03T15:15:55;8.65;;;2.88;;
55756;SDS011;41676;44.610;44.078;2022-11-03T15:20:56;7.93;;;2.88;;
55756;SDS011;41676;44.610;44.078;2022-11-03T15:25:58;16.05;;;3.00;;
55756;SDS011;41676;44.610;44.078;2022-11-03T15:31:00;9.23;;;3.20;;
55756;SDS011;41676;44.610;44.078;2022-11-03T15:41:40;27.92;;;4.35;;
55756;SDS011;41676;44.610;44.078;2022-11-03T15:52:19;7.05;;;2.92;;
55756;SDS011;41676;44.610;44.078;2022-11-03T15:57:21;10.52;;;2.97;;
55756;SDS011;41676;44.610;44.078;2022-11-03T16:02:22;9.98;;;3.40;;
55756;SDS011;41676;44.610;44.078;2022-11-03T16:07:23;8.55;;;3.55;;
55756;SDS011;41676;44.610;44.078;2022-11-03T16:12:23;19.48;;;3.95;;
55756;SDS011;41676;44.610;44.078;2022-11-03T16:17:24;12.68;;;5.18;;
55756;SDS011;41676;44.610;44.078;2022-11-03T16:22:25;13.38;;;4.95;;
55756;SDS011;41676;44.610;44.078;2022-11-03T16:27:26;13.25;;;6.53;;
55756;SDS011;41676;44.610;44.078;2022-11-03T16:32:26;18.33;;;8.95;;
55756;SDS011;41676;44.610;44.078;2022-11-03T16:37:27;19.73;;;12.23;;
55756;SDS011;41676;44.610;44.078;2022-11-03T16:42:28;17.83;;;11.30;;
55756;SDS011;41676;44.610;44.078;2022-11-03T16:47:29;11.57;;;5.50;;
55756;SDS011;41676;44.610;44.078;2022-11-03T16:52:30;14.48;;;5.70;;
55756;SDS011;41676;44.610;44.078;2022-11-03T16:57:31;10.10;;;5.55;;
55756;SDS011;41676;44.610;44.078;2022-11-03T17:02:31;17.75;;;9.23;;
55756;SDS011;41676;44.610;44.078;2022-11-03T17:07:32;12.15;;;7.40;;
55756;SDS011;41676;44.610;44.078;2022-11-03T17:12:33;11.43;;;8.38;;
55756;SDS011;41676;44.610;44.078;2022-11-03T17:17:34;12.90;;;8.82;;
55756;SDS011;41676;44.610;44.078;2022-11-03T17:22:35;12.18;;;7.25;;
55756;SDS011;41676;44.610;44.078;2022-11-03T17:32:45;14.77;;;5.10;;
55756;SDS011;41676;44.610;44.078;2022-11-03T17:37:52;10.40;;;6.53;;
55756;SDS011;41676;44.610;44.078;2022-11-03T17:42:53;18.35;;;6.95;;
55756;SDS011;41676;44.610;44.078;2022-11-03T17:47:54;13.73;;;5.65;;
55756;SDS011;41676;44.610;44.078;2022-11-03T17:52:55;7.72;;;5.45;;
55756;SDS011;41676;44.610;44.078;2022-11-03T17:57:57;13.68;;;6.55;;
55756;SDS011;41676;44.610;44.078;2022-11-03T18:03:00;14.00;;;6.82;;
55756;SDS011;41676;44.610;44.078;2022-11-03T18:08:03;14.07;;;5.90;;
55756;SDS011;41676;44.610;44.078;2022-11-03T18:13:11;8.05;;;5.68;;
55756;SDS011;41676;44.610;44.078;2022-11-03T18:23:37;8.93;;;5.00;;
55756;SDS011;41676;44.610;44.078;2022-11-03T18:28:37;12.82;;;6.05;;
55756;SDS011;41676;44.610;44.078;2022-11-03T18:33:38;12.32;;;7.25;;
55756;SDS011;41676;44.610;44.078;2022-11-03T18:38:40;11.18;;;6.97;;
55756;SDS011;41676;44.610;44.078;2022-11-03T18:43:42;15.50;;;6.80;;
55756;SDS011;41676;44.610;44.078;2022-11-03T18:48:43;10.98;;;6.50;;
55756;SDS011;41676;44.610;44.078;2022-11-03T18:53:44;10.90;;;5.55;;
55756;SDS011;41676;44.610;44.078;2022-11-03T18:58:45;7.20;;;5.18;;
55756;SDS011;41676;44.610;44.078;2022-11-03T19:03:46;6.43;;;4.00;;
55756;SDS011;41676;44.610;44.078;2022-11-03T19:08:47;8.15;;;5.35;;
55756;SDS011;41676;44.610;44.078;2022-11-03T19:13:50;8.50;;;5.20;;
55756;SDS011;41676;44.610;44.078;2022-11-03T19:18:51;8.55;;;5.55;;
55756;SDS011;41676;44.610;44.078;2022-11-03T19:23:52;11.35;;;6.25;;
55756;SDS011;41676;44.610;44.078;2022-11-03T19:28:57;8.13;;;5.68;;
55756;SDS011;41676;44.610;44.078;2022-11-03T19:34:03;9.18;;;4.90;;
55756;SDS011;41676;44.610;44.078;2022-11-03T19:39:14;7.22;;;5.20;;
55756;SDS011;41676;44.610;44.078;2022-11-03T19:44:20;10.43;;;4.32;;
55756;SDS011;41676;44.610;44.078;2022-11-03T19:49:21;8.30;;;4.55;;
55756;SDS011;41676;44.610;44.078;2022-11-03T19:54:22;5.55;;;4.38;;
55756;SDS011;41676;44.610;44.078;2022-11-03T19:59:24;13.40;;;4.63;;
55756;SDS011;41676;44.610;44.078;2022-11-03T20:04:25;9.10;;;5.38;;
55756;SDS011;41676;44.610;44.078;2022-11-03T20:09:26;7.40;;;4.95;;
55756;SDS011;41676;44.610;44.078;2022-11-03T20:14:27;25.98;;;4.43;;
55756;SDS011;41676;44.610;44.078;2022-11-03T20:19:28;16.52;;;8.40;;
55756;SDS011;41676;44.610;44.078;2022-11-03T20:24:29;14.32;;;7.57;;
55756;SDS011;41676;44.610;44.078;2022-11-03T20:29:31;7.65;;;4.70;;
55756;SDS011;41676;44.610;44.078;2022-11-03T20:34:32;13.48;;;5.50;;
55756;SDS011;41676;44.610;44.078;2022-11-03T20:39:32;11.25;;;5.03;;
55756;SDS011;41676;44.610;44.078;2022-11-03T20:44:33;9.65;;;5.10;;
55756;SDS011;41676;44.610;44.078;2022-11-03T20:49:34;10.68;;;6.35;;
55756;SDS011;41676;44.610;44.078;2022-11-03T20:54:35;7.85;;;4.90;;
55756;SDS011;41676;44.610;44.078;2022-11-03T20:59:36;7.90;;;4.60;;
55756;SDS011;41676;44.610;44.078;2022-11-03T21:04:36;9.75;;;4.88;;
55756;SDS011;41676;44.610;44.078;2022-11-03T21:09:37;6.95;;;4.53;;
55756;SDS011;41676;44.610;44.078;2022-11-03T21:14:39;6.95;;;4.82;;
55756;SDS011;41676;44.610;44.078;2022-11-03T21:20:03;10.25;;;5.60;;
55756;SDS011;41676;44.610;44.078;2022-11-03T21:25:15;7.03;;;4.32;;
55756;SDS011;41676;44.610;44.078;2022-11-03T21:30:18;6.80;;;4.40;;
55756;SDS011;41676;44.610;44.078;2022-11-03T21:35:19;9.35;;;4.10;;
55756;SDS011;41676;44.610;44.078;2022-11-03T21:40:21;15.93;;;5.05;;
55756;SDS011;41676;44.610;44.078;2022-11-03T21:45:22;9.52;;;4.10;;
55756;SDS011;41676;44.610;44.078;2022-11-03T21:50:23;7.38;;;3.90;;
55756;SDS011;41676;44.610;44.078;2022-11-03T21:55:24;11.98;;;4.07;;
55756;SDS011;41676;44.610;44.078;2022-11-03T22:00:25;6.13;;;3.83;;
55756;SDS011;41676;44.610;44.078;2022-11-03T22:05:27;5.55;;;3.88;;
55756;SDS011;41676;44.610;44.078;2022-11-03T22:10:29;9.25;;;4.20;;
55756;SDS011;41676;44.610;44.078;2022-11-03T22:15:29;9.82;;;3.80;;
55756;SDS011;41676;44.610;44.078;2022-11-03T22:20:49;9.93;;;4.20;;
55756;SDS011;41676;44.610;44.078;2022-11-03T22:26:11;6.63;;;3.60;;
55756;SDS011;41676;44.610;44.078;2022-11-03T22:31:33;9.35;;;3.83;;
55756;SDS011;41676;44.610;44.078;2022-11-03T22:36:40;12.60;;;3.75;;
55756;SDS011;41676;44.610;44.078;2022-11-03T22:41:41;6.18;;;3.60;;
55756;SDS011;41676;44.610;44.078;2022-11-03T22:47:00;5.82;;;3.78;;
55756;SDS011;41676;44.610;44.078;2022-11-03T22:52:01;6.15;;;3.78;;
55756;SDS011;41676;44.610;44.078;2022-11-03T22:57:02;8.05;;;4.20;;
55756;SDS011;41676;44.610;44.078;2022-11-03T23:02:03;9.65;;;3.95;;
55756;SDS011;41676;44.610;44.078;2022-11-03T23:07:03;9.13;;;4.00;;
55756;SDS011;41676;44.610;44.078;2022-11-03T23:12:04;7.32;;;3.78;;
55756;SDS011;41676;44.610;44.078;2022-11-03T23:17:05;5.45;;;3.92;;
55756;SDS011;41676;44.610;44.078;2022-11-03T23:22:06;7.47;;;4.20;;
55756;SDS011;41676;44.610;44.078;2022-11-03T23:27:07;7.38;;;3.53;;
55756;SDS011;41676;44.610;44.078;2022-11-03T23:32:08;7.18;;;4.50;;
55756;SDS011;41676;44.610;44.078;2022-11-03T23:37:08;5.82;;;4.10;;
55756;SDS011;41676;44.610;44.078;2022-11-03T23:42:09;8.05;;;4.18;;
55756;SDS011;41676;44.610;44.078;2022-11-03T23:47:10;6.80;;;3.30;;
55756;SDS011;41676;44.610;44.078;2022-11-03T23:52:29;5.40;;;3.72;;
55756;SDS011;41676;44.610;44.078;2022-11-03T23:57:30;7.85;;;4.10;;
